Palmdale, CA (93590)

12:41 AM PST on December 07, 2016 (GMT -0800)
RAWS | | Change Station
Active Advisory: Wind Advisory Active Notice: Public Information Statement

Elev 2979 ft 34.54 °N, 118.10 °W | Updated 46 minutes ago

Clear
Clear
44 °F
Feels Like 37 °F
N
16
Wind Variable Wind from WSW
Gusts 34.0 mph

Today
High -- | Low -- °F
--% Chance of Precip.
Yesterday
High -- | Low -- °F
Precip. -- in
Pressure 29.99 in
Visibility 10.0 miles
Clouds Clear
Windchill 37 °F
Dew Point 39 °F
Humidity 81%
Rainfall in
Snow Depth Not available.
6:46 AM 4:41 PM
Waxing Crescent, 50% visible
METAR KPMD 070753Z AUTO 27013KT 10SM CLR 04/M03 A3000 RMK AO2 SLP153 T00441028 401440044
Pressure 29.99 in
Visibility 10.0 miles
Clouds Clear
Windchill 37 °F
Dew Point 39 °F
Humidity 81%
Rainfall in
Snow Depth Not available.
6:46 AM 4:41 PM
Waxing Crescent, 50% visible
METAR KPMD 070753Z AUTO 27013KT 10SM CLR 04/M03 A3000 RMK AO2 SLP153 T00441028 401440044

10-Day Weather Forecast

Almanac

Astronomy

Dec. 07, 2016 Rise Set
Actual Time
Civil Twilight
Nautical Twilight
Astronomical Twilight
Moon
Length of Visible Light
Length of Day
Tomorrow will be .
, % of the Moon is Illuminated

Today's Extremes

State Highs State Lows

Community

WunderPhotos

Upload Photos

1,956,104 photos uploaded!

WunderBlog® & News

Nearby

Air Quality

  Air Quality AQ Index Pollutant
Not available.

Snow Depth

Station Depth Elevation

Earthquake Activity

City Distance Mag. Time & Date
Minimum magnitude displayed is 2.5.

Coastal Water Temperatures

Place Temperature

Stations

Nearby Weather Stations

Station Location Temp. Windchill Dew Point Humidity Wind Precip. Elev Updated Type
                   

Watches & Warnings

Wind Advisory
Issued: 8:32 PM PST Dec. 6, 2016 – National Weather Service

... Wind Advisory now in effect until 3 am PST Wednesday...

* winds... west winds 20 to 30 mph with gusts to 45 mph will linger
across the Antelope Valley through late tonight then diminish.
The strongest winds are expected mainly west of Highway 14 and
in the foothills.

* Impacts... gusty winds will make driving difficult... especially
for drivers of high profile vehicles. Blowing dust could
restrict visibilities to one half mile or less at times.

Precautionary/preparedness actions...

When driving... use extra caution. Be prepared for sudden gusty
cross winds.



Hall